Terminal Aerodrome Forecast
Issued by NWS Denver/Boulder, CO

Home | Current Version | Previous Version | Text Only | Print | Product List | Glossary On
Versions: 1 2 3 4 5 6 7 8 9 10 11 12 13 14 15 16 17 18 19 20 21 22 23 24 25 26 27 28 29 30 31 32 33 34 35 36 37 38 39 40 41 42 43 44 45 46 47 48 49 50
000
FTUS45 KBOU 030714 AAA
TAFDEN
TAF AMD
KDEN 030714Z 0307/0412 28007KT P6SM FEW100 SCT150
     FM031200 01012KT P6SM FEW015 SCT150
     FM031500 03009KT P6SM SCT020 SCT110
     FM031900 07011KT P6SM SCT030 SCT110
     FM032200 08013KT P6SM VCTS SCT040CB BKN080
      TEMPO 0322/0402 VRB20G35KT 5SM +TSRAGS OVC030CB
     FM040200 06009KT P6SM VCSH SCT040 BKN090
     FM040700 11007KT P6SM SCT005 BKN020
     FM041000 VRB04KT P6SM VCFG BKN005=

USA.gov is the U.S. government's official web portal to all federal, state and local government web resources and services.